Time;durP1;ratioP1;P1;durP2;ratioP2;P2;SDS_P1;SDS_P2;PMS_P1;PMS_P2;Temp;Humidity;BMP_temperature;BMP_pressure;BME280_temperature;BME280_humidity;BME280_pressure;Samples;Min_cycle;Max_cycle;Signal;HPM_P1;HPM_P2
2023/08/16 00:01:48;;;;;;;10.60;9.50;;;;;;;;;;10532592;28;20025;-85
2023/08/16 00:06:48;;;;;;;11.43;10.32;;;;;;;;;;10540911;28;20303;-83
2023/08/16 00:11:49;;;;;;;11.90;10.50;;;;;;;;;;10520307;28;20024;-82
2023/08/16 00:16:49;;;;;;;13.30;11.13;;;;;;;;;;10507545;28;20059;-87
2023/08/16 00:21:50;;;;;;;13.17;11.83;;;;;;;;;;10481040;28;20070;-86
2023/08/16 00:26:50;;;;;;;12.07;10.77;;;;;;;;;;10476385;28;20287;-83
2023/08/16 00:31:51;;;;;;;12.67;11.33;;;;;;;;;;10428064;28;20064;-80
2023/08/16 00:36:51;;;;;;;12.47;11.10;;;;;;;;;;10426723;28;20053;-79
2023/08/16 00:41:52;;;;;;;11.33;10.23;;;;;;;;;;10422879;28;20851;-79
2023/08/16 00:46:53;;;;;;;12.15;10.95;;;;;;;;;;10424460;28;20272;-80
2023/08/16 00:51:54;;;;;;;11.48;10.32;;;;;;;;;;10425733;28;20051;-81
2023/08/16 00:56:54;;;;;;;12.98;11.65;;;;;;;;;;10424430;28;20053;-78
2023/08/16 01:01:54;;;;;;;11.87;10.70;;;;;;;;;;10432109;28;20107;-78
2023/08/16 01:06:57;;;;;;;13.07;11.80;;;;;;;;;;10431347;28;20315;-79
2023/08/16 01:12:10;;;;;;;11.77;10.68;;;;;;;;;;10422443;28;20372;-79
2023/08/16 01:17:12;;;;;;;12.73;11.53;;;;;;;;;;10439912;28;20473;-81
2023/08/16 01:22:16;;;;;;;12.30;10.93;;;;;;;;;;10416997;28;20415;-80
2023/08/16 01:27:18;;;;;;;12.95;11.38;;;;;;;;;;10427267;28;20287;-82
2023/08/16 01:32:21;;;;;;;12.47;11.27;;;;;;;;;;10420490;28;20411;-78
2023/08/16 01:37:21;;;;;;;;;;;;;;;;;;10425351;28;20055;-83
2023/08/16 01:42:24;;;;;;;14.90;12.25;;;;;;;;;;10426855;28;19917;-82
2023/08/16 01:47:25;;;;;;;14.30;12.80;;;;;;;;;;10423453;28;20160;-77
2023/08/16 01:52:26;;;;;;;14.93;13.38;;;;;;;;;;10419691;28;20052;-79
2023/08/16 01:57:27;;;;;;;12.75;11.45;;;;;;;;;;10411056;28;20360;-76
2023/08/16 02:02:28;;;;;;;12.50;11.30;;;;;;;;;;10411632;28;20045;-78
2023/08/16 02:07:28;;;;;;;13.50;12.20;;;;;;;;;;10409938;28;20045;-77
2023/08/16 02:12:28;;;;;;;12.50;11.20;;;;;;;;;;10409492;28;20061;-79
2023/08/16 02:17:29;;;;;;;13.70;12.40;;;;;;;;;;10409888;28;20049;-80
2023/08/16 02:22:29;;;;;;;11.87;10.77;;;;;;;;;;10406981;28;20296;-81
2023/08/16 02:27:32;;;;;;;12.25;11.05;;;;;;;;;;10427827;28;21051;-79
2023/08/16 02:32:33;;;;;;;;;;;;;;;;;;10422747;28;20041;-80
2023/08/16 02:37:35;;;;;;;12.50;10.93;;;;;;;;;;10397289;28;20375;-78
2023/08/16 02:42:36;;;;;;;12.68;11.30;;;;;;;;;;10416670;28;20038;-78
2023/08/16 02:47:36;;;;;;;12.55;11.27;;;;;;;;;;10412506;28;20040;-82
2023/08/16 02:52:42;;;;;;;13.73;12.27;;;;;;;;;;10411987;28;20771;-78
2023/08/16 02:57:42;;;;;;;13.25;11.57;;;;;;;;;;10411786;28;20049;-80
2023/08/16 03:02:43;;;;;;;13.02;11.73;;;;;;;;;;10404139;28;20552;-81
2023/08/16 03:07:44;;;;;;;15.55;13.15;;;;;;;;;;10411088;28;20036;-78
2023/08/16 03:12:44;;;;;;;12.83;10.97;;;;;;;;;;10416140;28;20052;-79
2023/08/16 03:17:44;;;;;;;12.97;11.60;;;;;;;;;;10410152;28;20487;-79
2023/08/16 03:22:45;;;;;;;12.47;11.33;;;;;;;;;;10416597;28;20299;-80
2023/08/16 03:27:48;;;;;;;15.18;11.93;;;;;;;;;;10422228;28;20040;-78
2023/08/16 03:32:49;;;;;;;13.90;12.50;;;;;;;;;;10402746;28;20036;-78
2023/08/16 03:37:52;;;;;;;13.80;12.32;;;;;;;;;;10419859;28;20053;-79
2023/08/16 03:42:53;;;;;;;13.40;12.07;;;;;;;;;;10412403;28;20473;-80
2023/08/16 03:47:56;;;;;;;13.32;12.00;;;;;;;;;;10412824;28;20675;-79
2023/08/16 03:52:56;;;;;;;13.77;12.38;;;;;;;;;;10415123;28;20041;-79
2023/08/16 03:57:57;;;;;;;12.13;10.93;;;;;;;;;;10427425;28;20807;-79
2023/08/16 04:02:57;;;;;;;15.48;12.25;;;;;;;;;;10439367;28;20041;-80
2023/08/16 04:07:57;;;;;;;12.32;11.10;;;;;;;;;;10437330;28;20040;-78
2023/08/16 04:12:58;;;;;;;12.90;11.60;;;;;;;;;;10420301;28;20071;-80
2023/08/16 04:17:58;;;;;;;13.27;11.93;;;;;;;;;;10427905;28;20307;-78
2023/08/16 04:22:59;;;;;;;14.17;12.37;;;;;;;;;;10440794;28;20083;-78
2023/08/16 04:27:59;;;;;;;14.32;11.75;;;;;;;;;;10422667;28;20037;-77
2023/08/16 04:32:59;;;;;;;16.90;14.83;;;;;;;;;;10411651;28;20098;-77
2023/08/16 04:38:01;;;;;;;16.73;15.13;;;;;;;;;;10405034;28;20086;-79
2023/08/16 04:43:02;;;;;;;14.98;13.52;;;;;;;;;;10420904;28;20111;-79
2023/08/16 04:48:03;;;;;;;16.48;14.68;;;;;;;;;;10421508;28;21119;-78
2023/08/16 04:53:04;;;;;;;13.80;12.40;;;;;;;;;;10404265;28;20041;-78
2023/08/16 04:58:05;;;;;;;16.73;14.85;;;;;;;;;;10414942;28;20057;-77
2023/08/16 05:03:06;;;;;;;24.35;18.98;;;;;;;;;;10434470;28;20187;-78
2023/08/16 05:08:08;;;;;;;18.80;16.85;;;;;;;;;;10416620;28;20045;-78
2023/08/16 05:13:09;;;;;;;19.38;16.60;;;;;;;;;;10430256;28;20029;-79
2023/08/16 05:18:09;;;;;;;18.08;15.75;;;;;;;;;;10436794;28;20044;-77
2023/08/16 05:23:09;;;;;;;18.47;15.83;;;;;;;;;;10419332;28;20506;-78
2023/08/16 05:28:10;;;;;;;19.23;16.23;;;;;;;;;;10428829;28;20588;-78
2023/08/16 05:33:10;;;;;;;22.27;16.10;;;;;;;;;;10433850;28;20048;-78
2023/08/16 05:38:10;;;;;;;20.45;16.75;;;;;;;;;;10428427;28;20056;-80
2023/08/16 05:43:11;;;;;;;25.90;18.38;;;;;;;;;;10431061;28;20033;-78
2023/08/16 05:48:11;;;;;;;21.98;17.55;;;;;;;;;;10410563;28;20151;-79
2023/08/16 05:53:12;;;;;;;17.80;15.50;;;;;;;;;;10426366;28;20041;-78
2023/08/16 05:58:12;;;;;;;22.13;17.07;;;;;;;;;;10434750;28;20071;-83
2023/08/16 06:03:13;;;;;;;17.83;16.02;;;;;;;;;;10443172;28;20025;-87
2023/08/16 06:08:14;;;;;;;16.00;14.48;;;;;;;;;;10451091;23;20055;-83
2023/08/16 06:13:14;;;;;;;13.85;12.55;;;;;;;;;;10428188;28;20044;-82
2023/08/16 06:18:16;;;;;;;16.20;14.43;;;;;;;;;;10428053;28;20052;-82
2023/08/16 06:23:16;;;;;;;15.83;14.17;;;;;;;;;;10429268;28;20303;-82
2023/08/16 06:28:17;;;;;;;13.02;11.73;;;;;;;;;;10442584;28;20041;-82
2023/08/16 06:33:17;;;;;;;14.53;11.70;;;;;;;;;;10413103;28;20160;-79
2023/08/16 06:38:18;;;;;;;16.40;14.53;;;;;;;;;;10422113;28;20891;-82
2023/08/16 06:43:18;;;;;;;15.00;13.20;;;;;;;;;;10423764;28;20995;-81
2023/08/16 06:48:18;;;;;;;14.57;12.63;;;;;;;;;;10421008;28;20566;-80
2023/08/16 06:53:19;;;;;;;16.03;14.40;;;;;;;;;;10424340;28;20788;-80
2023/08/16 07:09:07;;;;;;;14.00;12.60;;;;;;;;;;11333069;22;20141;-81
2023/08/16 07:14:08;;;;;;;15.27;12.87;;;;;;;;;;10303842;28;20046;-75
2023/08/16 07:19:09;;;;;;;12.88;10.93;;;;;;;;;;10314687;28;20034;-80
2023/08/16 07:24:09;;;;;;;15.63;13.88;;;;;;;;;;10334207;28;20038;-82
2023/08/16 07:29:12;;;;;;;10.97;9.87;;;;;;;;;;10310770;28;20047;-85
2023/08/16 07:34:12;;;;;;;13.60;12.20;;;;;;;;;;10299727;28;20100;-78
2023/08/16 07:39:13;;;;;;;13.13;11.73;;;;;;;;;;10289031;28;20062;-78
2023/08/16 07:44:13;;;;;;;11.40;10.20;;;;;;;;;;10299854;28;20042;-77
2023/08/16 07:49:13;;;;;;;10.60;9.50;;;;;;;;;;10301565;28;20066;-76
2023/08/16 07:54:14;;;;;;;10.95;9.88;;;;;;;;;;10297743;28;20042;-82
2023/08/16 07:59:15;;;;;;;10.63;9.47;;;;;;;;;;10291660;28;20197;-81
2023/08/16 08:04:15;;;;;;;10.75;9.75;;;;;;;;;;10263413;28;20396;-83
2023/08/16 08:09:16;;;;;;;10.07;8.93;;;;;;;;;;10296413;28;20038;-81
2023/08/16 08:14:16;;;;;;;10.30;9.20;;;;;;;;;;10294788;28;20038;-81
2023/08/16 08:19:16;;;;;;;9.70;8.70;;;;;;;;;;10306666;28;20313;-81
2023/08/16 08:24:17;;;;;;;10.73;9.17;;;;;;;;;;10315813;28;20700;-80
2023/08/16 08:29:18;;;;;;;10.70;9.65;;;;;;;;;;10323525;28;20039;-81
2023/08/16 08:34:19;;;;;;;10.00;8.98;;;;;;;;;;10290751;28;20039;-80
2023/08/16 08:39:19;;;;;;;9.43;8.52;;;;;;;;;;10306132;28;20038;-83
2023/08/16 08:44:22;;;;;;;9.20;8.30;;;;;;;;;;10321953;28;20518;-82
2023/08/16 08:49:23;;;;;;;9.88;8.82;;;;;;;;;;10308396;28;20046;-82
2023/08/16 08:54:24;;;;;;;9.23;8.27;;;;;;;;;;10292864;28;20042;-83
2023/08/16 08:59:25;;;;;;;9.23;7.67;;;;;;;;;;10308495;28;20089;-82
2023/08/16 09:04:26;;;;;;;7.30;6.40;;;;;;;;;;10289606;28;20460;-82
2023/08/16 09:09:30;;;;;;;6.57;5.95;;;;;;;;;;10311210;28;20042;-84
2023/08/16 09:14:30;;;;;;;6.05;5.40;;;;;;;;;;10317451;28;20074;-80
2023/08/16 09:19:30;;;;;;;5.93;5.33;;;;;;;;;;10305247;28;20039;-78
2023/08/16 09:24:31;;;;;;;7.43;6.33;;;;;;;;;;10275426;28;20038;-77
2023/08/16 09:29:36;;;;;;;7.32;6.50;;;;;;;;;;10304677;28;20042;-80
2023/08/16 09:34:37;;;;;;;5.32;4.82;;;;;;;;;;10273895;28;20049;-80
2023/08/16 09:39:37;;;;;;;4.83;4.37;;;;;;;;;;10294449;28;20043;-77
2023/08/16 09:44:40;;;;;;;4.90;4.40;;;;;;;;;;10298010;28;20044;-79
2023/08/16 09:49:43;;;;;;;5.40;4.35;;;;;;;;;;10304098;28;20065;-77
2023/08/16 09:54:46;;;;;;;4.63;4.25;;;;;;;;;;10295192;28;20508;-78
2023/08/16 09:59:47;;;;;;;4.10;3.70;;;;;;;;;;10319490;28;20046;-81
2023/08/16 10:04:48;;;;;;;3.87;3.57;;;;;;;;;;10313071;28;20096;-78
2023/08/16 10:09:49;;;;;;;4.23;3.93;;;;;;;;;;10296950;28;20039;-79
2023/08/16 10:14:49;;;;;;;3.73;3.33;;;;;;;;;;10295493;28;20543;-80
2023/08/16 10:19:52;;;;;;;3.60;3.30;;;;;;;;;;10296430;28;20409;-80
2023/08/16 10:24:52;;;;;;;4.03;3.60;;;;;;;;;;10297747;28;20120;-79
2023/08/16 10:29:58;;;;;;;3.63;3.33;;;;;;;;;;10300509;28;20044;-79
2023/08/16 10:34:59;;;;;;;3.72;3.42;;;;;;;;;;10298351;28;20057;-80
2023/08/16 10:39:59;;;;;;;4.13;3.58;;;;;;;;;;10313964;28;20050;-81
2023/08/16 10:44:59;;;;;;;6.00;4.90;;;;;;;;;;10296599;28;20038;-76
2023/08/16 10:50:00;;;;;;;4.83;3.80;;;;;;;;;;10296647;28;20098;-82
2023/08/16 10:55:01;;;;;;;3.73;3.33;;;;;;;;;;10294405;28;20043;-78
2023/08/16 11:00:05;;;;;;;4.53;3.57;;;;;;;;;;10293301;28;20080;-77
2023/08/16 11:05:14;;;;;;;5.30;4.80;;;;;;;;;;10296855;28;20042;-75
2023/08/16 11:10:14;;;;;;;5.65;3.90;;;;;;;;;;10298365;28;20193;-76
2023/08/16 11:15:17;;;;;;;4.37;3.97;;;;;;;;;;10297341;28;20045;-76
2023/08/16 11:20:18;;;;;;;5.45;3.80;;;;;;;;;;10289586;28;20081;-76
2023/08/16 11:25:19;;;;;;;4.65;4.25;;;;;;;;;;10277235;28;20036;-77
2023/08/16 11:30:19;;;;;;;4.73;3.37;;;;;;;;;;10293183;28;20499;-78
2023/08/16 11:35:19;;;;;;;6.03;5.13;;;;;;;;;;10302164;28;20038;-76
2023/08/16 11:40:23;;;;;;;4.70;4.30;;;;;;;;;;10294995;28;20047;-77
2023/08/16 11:45:24;;;;;;;6.97;5.05;;;;;;;;;;10293965;28;20731;-78
2023/08/16 11:50:25;;;;;;;4.80;4.22;;;;;;;;;;10291958;28;20049;-77
2023/08/16 11:55:28;;;;;;;5.67;5.17;;;;;;;;;;10307167;28;20049;-79
2023/08/16 12:00:29;;;;;;;4.82;4.32;;;;;;;;;;10291590;28;20042;-78
2023/08/16 12:05:33;;;;;;;6.23;4.63;;;;;;;;;;10282832;28;20041;-81
2023/08/16 12:10:34;;;;;;;4.97;3.83;;;;;;;;;;10303712;28;20069;-80
2023/08/16 12:15:34;;;;;;;4.70;4.27;;;;;;;;;;10304387;28;20133;-75
2023/08/16 12:20:35;;;;;;;5.50;4.40;;;;;;;;;;10303074;28;20034;-76
2023/08/16 12:25:35;;;;;;;7.40;4.73;;;;;;;;;;10293398;28;20068;-75
2023/08/16 12:35:59;;;;;;;5.38;4.85;;;;;;;;;;11105688;22;20053;-78
2023/08/16 12:40:59;;;;;;;5.07;4.67;;;;;;;;;;10333392;28;20034;-76
2023/08/16 12:46:05;;;;;;;5.37;4.70;;;;;;;;;;10329274;28;20044;-77
2023/08/16 12:51:05;;;;;;;4.97;4.50;;;;;;;;;;10319234;28;20121;-75
2023/08/16 12:56:06;;;;;;;6.73;4.97;;;;;;;;;;10324047;28;20798;-77
2023/08/16 13:01:06;;;;;;;7.30;4.67;;;;;;;;;;10326659;28;20057;-75
2023/08/16 13:06:07;;;;;;;5.30;4.80;;;;;;;;;;10324861;28;21487;-75
2023/08/16 13:11:07;;;;;;;5.83;4.67;;;;;;;;;;10327054;28;20034;-77
2023/08/16 13:16:07;;;;;;;6.20;4.80;;;;;;;;;;10331627;28;20120;-77
2023/08/16 13:21:09;;;;;;;5.83;4.90;;;;;;;;;;10329817;28;20486;-80
2023/08/16 13:26:09;;;;;;;4.82;4.32;;;;;;;;;;10325061;28;20084;-78
2023/08/16 13:31:10;;;;;;;5.57;4.67;;;;;;;;;;10324981;28;20053;-79
2023/08/16 13:36:10;;;;;;;5.23;4.83;;;;;;;;;;10323485;28;20069;-80
2023/08/16 13:41:10;;;;;;;5.23;4.73;;;;;;;;;;10331201;28;21407;-79
2023/08/16 13:46:11;;;;;;;6.47;4.93;;;;;;;;;;10332694;28;20040;-76
2023/08/16 13:51:11;;;;;;;8.40;5.40;;;;;;;;;;10330293;28;20036;-77
2023/08/16 13:56:12;;;;;;;4.93;4.53;;;;;;;;;;10313814;28;20070;-78
2023/08/16 14:01:12;;;;;;;5.23;4.73;;;;;;;;;;10327000;28;20053;-77
2023/08/16 14:06:13;;;;;;;5.63;4.67;;;;;;;;;;10326959;28;20665;-80
2023/08/16 14:11:14;;;;;;;7.03;5.00;;;;;;;;;;10343827;28;20042;-77
2023/08/16 14:16:15;;;;;;;5.60;4.78;;;;;;;;;;10352204;28;20304;-80
2023/08/16 14:21:15;;;;;;;7.87;5.30;;;;;;;;;;10311294;28;20042;-81
2023/08/16 14:26:18;;;;;;;6.50;5.17;;;;;;;;;;10328134;28;20490;-79
2023/08/16 14:31:18;;;;;;;6.60;6.00;;;;;;;;;;10331599;28;20581;-77
2023/08/16 14:36:19;;;;;;;5.90;5.30;;;;;;;;;;10333811;28;20049;-78
2023/08/16 14:41:19;;;;;;;5.93;4.73;;;;;;;;;;10326736;28;20123;-77
2023/08/16 14:46:21;;;;;;;5.90;5.33;;;;;;;;;;10325778;28;20045;-81
2023/08/16 14:51:22;;;;;;;4.88;4.38;;;;;;;;;;10318043;28;20064;-79
2023/08/16 14:56:22;;;;;;;4.57;4.17;;;;;;;;;;10333302;28;20044;-78
2023/08/16 15:01:23;;;;;;;5.27;4.10;;;;;;;;;;10330798;28;20046;-78
2023/08/16 15:06:23;;;;;;;5.43;4.13;;;;;;;;;;10328417;28;20070;-78
2023/08/16 15:11:23;;;;;;;4.17;3.83;;;;;;;;;;10302919;28;20041;-76
2023/08/16 15:16:24;;;;;;;5.10;4.70;;;;;;;;;;10318207;28;20149;-78
2023/08/16 15:21:25;;;;;;;7.22;4.97;;;;;;;;;;10327842;28;20034;-78
2023/08/16 15:26:25;;;;;;;6.13;4.20;;;;;;;;;;10306096;28;20552;-77
2023/08/16 15:31:25;;;;;;;9.43;5.13;;;;;;;;;;10320817;28;20033;-78
2023/08/16 15:36:26;;;;;;;5.10;4.70;;;;;;;;;;10303939;28;20053;-77
2023/08/16 15:41:26;;;;;;;4.00;3.70;;;;;;;;;;10316564;28;20139;-80
2023/08/16 15:46:27;;;;;;;4.53;4.07;;;;;;;;;;10306626;28;20042;-79
2023/08/16 15:51:28;;;;;;;4.30;3.90;;;;;;;;;;10306856;28;20054;-79
2023/08/16 15:56:28;;;;;;;4.83;3.90;;;;;;;;;;10304388;28;20068;-76
2023/08/16 16:01:29;;;;;;;5.70;4.33;;;;;;;;;;10318891;28;20066;-76
2023/08/16 16:06:29;;;;;;;5.73;3.90;;;;;;;;;;10313094;28;20164;-75
2023/08/16 16:11:32;;;;;;;4.73;4.20;;;;;;;;;;10313229;28;20037;-76
2023/08/16 16:16:32;;;;;;;6.47;4.28;;;;;;;;;;10293145;28;20065;-77
2023/08/16 16:21:34;;;;;;;4.60;4.20;;;;;;;;;;10276498;28;20046;-76
2023/08/16 16:26:34;;;;;;;4.85;4.30;;;;;;;;;;10321569;28;20030;-78
2023/08/16 16:31:35;;;;;;;5.20;4.13;;;;;;;;;;10324222;28;20042;-77
2023/08/16 16:36:35;;;;;;;4.30;3.70;;;;;;;;;;10307592;28;20508;-79
2023/08/16 16:41:35;;;;;;;5.07;4.13;;;;;;;;;;10338670;28;20046;-79
2023/08/16 16:46:36;;;;;;;9.37;6.67;;;;;;;;;;10320679;28;20030;-78
2023/08/16 16:51:36;;;;;;;6.97;5.00;;;;;;;;;;10323274;28;20045;-78
2023/08/16 16:56:36;;;;;;;4.40;4.00;;;;;;;;;;10324006;28;20038;-77
2023/08/16 17:01:37;;;;;;;5.80;4.07;;;;;;;;;;10319569;28;20030;-75
2023/08/16 17:06:37;;;;;;;6.30;4.47;;;;;;;;;;10319966;28;20703;-78
2023/08/16 17:11:37;;;;;;;4.50;4.10;;;;;;;;;;10310566;28;20118;-77
2023/08/16 17:16:38;;;;;;;4.47;4.07;;;;;;;;;;10298743;28;20057;-76
2023/08/16 17:21:38;;;;;;;6.03;4.00;;;;;;;;;;10320398;28;20031;-78
2023/08/16 17:26:39;;;;;;;5.93;4.20;;;;;;;;;;10336272;28;20156;-75
2023/08/16 17:31:39;;;;;;;4.90;4.33;;;;;;;;;;10329314;28;20041;-74
2023/08/16 17:36:39;;;;;;;4.60;4.17;;;;;;;;;;10334390;28;20530;-76
2023/08/16 17:41:40;;;;;;;5.43;4.40;;;;;;;;;;10327851;28;20050;-76
2023/08/16 17:46:42;;;;;;;5.77;5.20;;;;;;;;;;10325419;28;20141;-76
2023/08/16 17:51:43;;;;;;;5.43;4.72;;;;;;;;;;10310902;28;20038;-77
2023/08/16 17:56:43;;;;;;;5.40;4.90;;;;;;;;;;10340314;28;20034;-80
2023/08/16 18:01:44;;;;;;;5.80;5.23;;;;;;;;;;10325657;28;20034;-77
2023/08/16 18:06:44;;;;;;;5.72;5.22;;;;;;;;;;10323721;28;20046;-76
2023/08/16 18:11:45;;;;;;;6.00;4.87;;;;;;;;;;10320145;28;20112;-76
2023/08/16 18:16:45;;;;;;;7.10;5.10;;;;;;;;;;10319186;28;20053;-76
2023/08/16 18:21:46;;;;;;;7.20;5.63;;;;;;;;;;10298689;28;20048;-79
2023/08/16 18:26:46;;;;;;;5.93;4.63;;;;;;;;;;10316837;28;20034;-77
2023/08/16 18:31:46;;;;;;;6.07;5.43;;;;;;;;;;10314815;28;20033;-76
2023/08/16 18:36:47;;;;;;;6.13;4.70;;;;;;;;;;10297867;28;20057;-78
2023/08/16 18:41:47;;;;;;;6.23;5.17;;;;;;;;;;10310859;28;20121;-78
2023/08/16 18:46:47;;;;;;;6.57;5.03;;;;;;;;;;10315545;28;20592;-76
2023/08/16 18:51:48;;;;;;;7.37;5.20;;;;;;;;;;10317888;28;20154;-75
2023/08/16 18:56:48;;;;;;;5.90;5.27;;;;;;;;;;10326400;28;20041;-76
2023/08/16 19:01:48;;;;;;;5.67;5.10;;;;;;;;;;10312655;28;20383;-74
2023/08/16 19:06:49;;;;;;;6.43;5.35;;;;;;;;;;10312496;28;20028;-77
2023/08/16 19:11:49;;;;;;;5.27;4.77;;;;;;;;;;10314335;28;20050;-76
2023/08/16 19:16:49;;;;;;;6.80;5.40;;;;;;;;;;10308167;28;20112;-76
2023/08/16 19:21:50;;;;;;;5.67;5.17;;;;;;;;;;10313051;28;20077;-80
2023/08/16 19:26:50;;;;;;;6.03;5.43;;;;;;;;;;10311544;28;20042;-77
2023/08/16 19:31:50;;;;;;;6.63;5.03;;;;;;;;;;10303541;28;20199;-81
2023/08/16 19:36:51;;;;;;;5.17;4.67;;;;;;;;;;10310152;28;20510;-79
2023/08/16 19:41:51;;;;;;;5.00;4.60;;;;;;;;;;10299449;28;20405;-78
2023/08/16 19:46:51;;;;;;;4.72;4.22;;;;;;;;;;10291968;28;20286;-82
2023/08/16 19:51:52;;;;;;;5.30;4.75;;;;;;;;;;10311011;28;20073;-79
2023/08/16 19:56:52;;;;;;;5.18;4.70;;;;;;;;;;10317417;28;20042;-79
2023/08/16 20:01:53;;;;;;;6.90;4.57;;;;;;;;;;10317272;28;20041;-79
2023/08/16 20:06:53;;;;;;;5.27;4.73;;;;;;;;;;10286275;28;20706;-82
2023/08/16 20:11:53;;;;;;;5.80;5.10;;;;;;;;;;10310509;28;20042;-78
2023/08/16 20:16:54;;;;;;;6.23;4.20;;;;;;;;;;10320993;28;20087;-81
2023/08/16 20:21:54;;;;;;;4.50;4.10;;;;;;;;;;10314245;28;20035;-76
2023/08/16 20:26:54;;;;;;;6.63;4.20;;;;;;;;;;10318830;28;20029;-76
2023/08/16 20:31:55;;;;;;;5.53;4.17;;;;;;;;;;10305011;28;20164;-76
2023/08/16 20:36:55;;;;;;;5.63;4.70;;;;;;;;;;10303019;28;20097;-77
2023/08/16 20:41:55;;;;;;;4.75;4.00;;;;;;;;;;10314189;28;20040;-79
2023/08/16 20:46:56;;;;;;;5.50;4.45;;;;;;;;;;10308178;28;20121;-76
2023/08/16 20:51:56;;;;;;;6.83;4.57;;;;;;;;;;10324214;28;20038;-76
2023/08/16 20:56:56;;;;;;;5.70;4.60;;;;;;;;;;10319682;28;20053;-75
2023/08/16 21:01:57;;;;;;;5.90;4.80;;;;;;;;;;10321999;28;20030;-79
2023/08/16 21:06:58;;;;;;;6.57;5.43;;;;;;;;;;10318240;28;20052;-76
2023/08/16 21:11:58;;;;;;;6.93;5.30;;;;;;;;;;10320357;28;20039;-78
2023/08/16 21:16:58;;;;;;;5.67;5.00;;;;;;;;;;10323542;28;20507;-78
2023/08/16 21:21:59;;;;;;;9.23;5.70;;;;;;;;;;10322864;28;20512;-77
2023/08/16 21:27:00;;;;;;;7.80;5.93;;;;;;;;;;10319754;28;20042;-79
2023/08/16 21:32:00;;;;;;;6.97;6.33;;;;;;;;;;10324114;28;20066;-75
2023/08/16 21:37:01;;;;;;;6.67;6.07;;;;;;;;;;10318596;28;20050;-76
2023/08/16 21:42:01;;;;;;;6.73;5.67;;;;;;;;;;10316530;28;20049;-76
2023/08/16 21:47:02;;;;;;;8.80;6.05;;;;;;;;;;10316032;28;20842;-78
2023/08/16 21:52:02;;;;;;;5.80;5.30;;;;;;;;;;10325263;28;20065;-76
2023/08/16 21:57:02;;;;;;;6.50;5.80;;;;;;;;;;10317757;28;20082;-76
2023/08/16 22:02:03;;;;;;;6.22;5.65;;;;;;;;;;10315379;28;20278;-76
2023/08/16 22:07:03;;;;;;;6.10;5.60;;;;;;;;;;10310902;28;20602;-75
2023/08/16 22:12:04;;;;;;;6.20;5.60;;;;;;;;;;10325845;28;20472;-75
2023/08/16 22:17:05;;;;;;;6.00;5.40;;;;;;;;;;10319182;28;20317;-75
2023/08/16 22:22:05;;;;;;;7.13;5.85;;;;;;;;;;10319933;28;20042;-75
2023/08/16 22:27:07;;;;;;;6.55;5.80;;;;;;;;;;10306261;28;20049;-76
2023/08/16 22:32:07;;;;;;;6.37;5.77;;;;;;;;;;10313907;28;20045;-76
2023/08/16 22:37:07;;;;;;;6.63;5.67;;;;;;;;;;10312974;28;20047;-77
2023/08/16 22:42:08;;;;;;;6.63;5.67;;;;;;;;;;10314644;28;20042;-75
2023/08/16 22:47:08;;;;;;;6.60;5.83;;;;;;;;;;10314332;28;20089;-76
2023/08/16 22:52:08;;;;;;;7.78;5.75;;;;;;;;;;10323530;28;20168;-75
2023/08/16 22:57:09;;;;;;;6.60;5.90;;;;;;;;;;10324435;28;20127;-76
2023/08/16 23:02:09;;;;;;;6.13;5.63;;;;;;;;;;10311236;28;20119;-76
2023/08/16 23:07:09;;;;;;;9.33;6.27;;;;;;;;;;10314286;28;20049;-74
2023/08/16 23:12:10;;;;;;;6.77;6.00;;;;;;;;;;10320306;28;20773;-75
2023/08/16 23:17:10;;;;;;;7.70;6.50;;;;;;;;;;10316240;28;20328;-76
2023/08/16 23:22:11;;;;;;;8.10;6.40;;;;;;;;;;10317420;28;20169;-75
2023/08/16 23:27:11;;;;;;;7.53;6.40;;;;;;;;;;10313527;28;20309;-77
2023/08/16 23:32:11;;;;;;;6.90;6.20;;;;;;;;;;10318213;28;20041;-75
2023/08/16 23:37:12;;;;;;;7.20;5.97;;;;;;;;;;10319176;28;20054;-74
2023/08/16 23:42:12;;;;;;;7.03;6.33;;;;;;;;;;10292337;28;20065;-76
2023/08/16 23:47:13;;;;;;;9.18;7.15;;;;;;;;;;10316950;28;20070;-78
2023/08/16 23:52:13;;;;;;;7.47;6.78;;;;;;;;;;10326268;28;20166;-76
2023/08/16 23:57:13;;;;;;;7.83;7.00;;;;;;;;;;10328402;28;20053;-76
